Time,TemperatureF,DewpointF,PressureIn,WindDirection,WindDirectionDegrees,WindSpeedMPH,WindSpeedGustMPH,Humidity,HourlyPrecipIn,Conditions,Clouds,dailyrainin,SoftwareType,DateUTC
2013-02-11 00:02:00,19.0,17.0,30.07,NNW,345,13.0,-999.0,91,-99.99,,,-99.99,,2013-02-11 06:02:00,
2013-02-11 00:11:00,19.0,17.0,30.07,NNW,345,13.0,-999.0,91,-99.99,,,-99.99,,2013-02-11 06:11:00,
2013-02-11 00:21:00,19.0,17.0,30.07,NNW,348,15.0,-999.0,91,-99.99,,,-99.99,,2013-02-11 06:21:00,
2013-02-11 00:32:00,19.0,17.0,30.08,North,355,13.0,-999.0,90,-99.99,,,-99.99,,2013-02-11 06:32:00,
2013-02-11 00:42:00,19.0,17.0,30.08,NNW,338,14.0,-999.0,90,-99.99,,,-99.99,,2013-02-11 06:42:00,
2013-02-11 00:52:00,19.0,17.0,30.08,NNW,338,14.0,-999.0,90,-99.99,,,-99.99,,2013-02-11 06:52:00,
2013-02-11 01:01:00,19.0,17.0,30.09,North,349,11.0,-999.0,91,-99.99,,,-99.99,,2013-02-11 07:01:00,
2013-02-11 01:11:00,19.0,17.0,30.09,North,355,10.0,-999.0,91,-99.99,,,-99.99,,2013-02-11 07:11:00,
2013-02-11 01:21:00,19.0,17.0,30.09,North,355,10.0,-999.0,91,-99.99,,,-99.99,,2013-02-11 07:21:00,
2013-02-11 01:32:00,19.0,17.0,30.09,NNW,334,14.0,-999.0,91,-99.99,,,-99.99,,2013-02-11 07:32:00,
2013-02-11 01:41:00,19.0,17.0,30.09,North,349,15.0,-999.0,91,-99.99,,,-99.99,,2013-02-11 07:41:00,
2013-02-11 01:52:00,19.0,17.0,30.09,North,349,15.0,-999.0,91,-99.99,,,-99.99,,2013-02-11 07:52:00,
2013-02-11 02:01:00,18.0,16.0,30.09,North,355,15.0,-999.0,91,-99.99,,,-99.99,,2013-02-11 08:01:00,
2013-02-11 02:11:00,18.0,16.0,30.09,NNW,341,16.0,-999.0,90,-99.99,,,-99.99,,2013-02-11 08:11:00,
2013-02-11 02:21:00,18.0,16.0,30.09,NNW,341,16.0,-999.0,90,-99.99,,,-99.99,,2013-02-11 08:21:00,
2013-02-11 02:31:00,18.0,16.0,30.10,North,360,14.0,-999.0,90,-99.99,,,-99.99,,2013-02-11 08:31:00,
2013-02-11 02:42:00,18.0,16.0,30.10,North,355,13.0,-999.0,90,-99.99,,,-99.99,,2013-02-11 08:42:00,
2013-02-11 02:52:00,18.0,16.0,30.10,North,355,13.0,-999.0,90,-99.99,,,-99.99,,2013-02-11 08:52:00,
2013-02-11 03:01:00,18.0,15.0,30.10,NNW,338,12.0,-999.0,89,-99.99,,,-99.99,,2013-02-11 09:01:00,
2013-02-11 03:12:00,18.0,15.0,30.10,NNW,338,12.0,-999.0,89,-99.99,,,-99.99,,2013-02-11 09:12:00,
2013-02-11 03:21:00,17.0,14.0,30.10,NNW,331,10.0,-999.0,89,-99.99,,,-99.99,,2013-02-11 09:21:00,
2013-02-11 03:31:00,17.0,14.0,30.09,NW,325,12.0,-999.0,88,-99.99,,,-99.99,,2013-02-11 09:31:00,
2013-02-11 03:41:00,17.0,14.0,30.09,NW,325,12.0,-999.0,88,-99.99,,,-99.99,,2013-02-11 09:41:00,
2013-02-11 03:52:00,17.0,14.0,30.09,NW,324,12.0,-999.0,88,-99.99,,,-99.99,,2013-02-11 09:52:00,
2013-02-11 04:01:00,17.0,14.0,30.09,NW,326,11.0,-999.0,87,-99.99,,,-99.99,,2013-02-11 10:01:00,
2013-02-11 04:11:00,17.0,14.0,30.09,NW,326,11.0,-999.0,87,-99.99,,,-99.99,,2013-02-11 10:11:00,
2013-02-11 04:21:00,17.0,14.0,30.09,NW,317,11.0,-999.0,88,-99.99,,,-99.99,,2013-02-11 10:21:00,
2013-02-11 04:31:00,17.0,14.0,30.09,NW,319,11.0,-999.0,88,-99.99,,,-99.99,,2013-02-11 10:31:00,
2013-02-11 04:42:00,17.0,14.0,30.09,NW,319,11.0,-999.0,88,-99.99,,,-99.99,,2013-02-11 10:42:00,
2013-02-11 04:52:00,17.0,14.0,30.10,NW,313,11.0,-999.0,89,-99.99,,,-99.99,,2013-02-11 10:52:00,
2013-02-11 05:01:00,17.0,14.0,30.10,NW,313,11.0,-999.0,89,-99.99,,,-99.99,,2013-02-11 11:01:00,
2013-02-11 05:11:00,17.0,14.0,30.10,NW,313,11.0,-999.0,89,-99.99,,,-99.99,,2013-02-11 11:11:00,
2013-02-11 05:22:00,17.0,14.0,30.10,NW,317,14.0,-999.0,88,-99.99,,,-99.99,,2013-02-11 11:22:00,
2013-02-11 05:32:00,17.0,14.0,30.10,NW,321,12.0,-999.0,88,-99.99,,,-99.99,,2013-02-11 11:32:00,
2013-02-11 05:42:00,17.0,14.0,30.10,NW,319,12.0,-999.0,89,-99.99,,,-99.99,,2013-02-11 11:42:00,
2013-02-11 05:52:00,17.0,14.0,30.10,NW,319,12.0,-999.0,89,-99.99,,,-99.99,,2013-02-11 11:52:00,
2013-02-11 06:03:00,17.0,14.0,30.10,NW,319,11.0,-999.0,89,-99.99,,,-99.99,,2013-02-11 12:03:00,
2013-02-11 06:12:00,17.0,14.0,30.10,NW,319,11.0,-999.0,89,-99.99,,,-99.99,,2013-02-11 12:12:00,
2013-02-11 06:22:00,16.0,13.0,30.10,NW,326,11.0,-999.0,88,-99.99,,,-99.99,,2013-02-11 12:22:00,
2013-02-11 06:32:00,16.0,13.0,30.10,NNW,334,10.0,-999.0,88,-99.99,,,-99.99,,2013-02-11 12:32:00,
2013-02-11 06:42:00,16.0,13.0,30.10,NNW,327,12.0,-999.0,87,-99.99,,,-99.99,,2013-02-11 12:42:00,
2013-02-11 06:52:00,16.0,13.0,30.10,NNW,327,12.0,-999.0,87,-99.99,,,-99.99,,2013-02-11 12:52:00,
2013-02-11 07:01:00,16.0,13.0,30.10,NW,313,11.0,-999.0,87,-99.99,,,-99.99,,2013-02-11 13:01:00,
2013-02-11 07:11:00,16.0,13.0,30.10,NW,326,9.0,-999.0,88,-99.99,,,-99.99,,2013-02-11 13:11:00,
2013-02-11 07:22:00,16.0,13.0,30.10,NW,326,9.0,-999.0,88,-99.99,,,-99.99,,2013-02-11 13:22:00,
2013-02-11 07:32:00,16.0,13.0,30.11,NW,313,9.0,-999.0,88,-99.99,,,-99.99,,2013-02-11 13:32:00,
2013-02-11 07:42:00,16.0,13.0,30.11,NW,313,9.0,-999.0,88,-99.99,,,-99.99,,2013-02-11 13:42:00,
2013-02-11 07:52:00,15.0,12.0,30.11,WNW,296,12.0,-999.0,87,-99.99,,,-99.99,,2013-02-11 13:52:00,
2013-02-11 08:01:00,15.0,12.0,30.11,NW,306,11.0,-999.0,87,-99.99,,,-99.99,,2013-02-11 14:01:00,
2013-02-11 08:11:00,15.0,12.0,30.11,NW,306,11.0,-999.0,87,-99.99,,,-99.99,,2013-02-11 14:11:00,
2013-02-11 08:22:00,15.0,12.0,30.12,NW,314,10.0,-999.0,87,-99.99,,,-99.99,,2013-02-11 14:22:00,
2013-02-11 08:32:00,15.0,12.0,30.11,NW,323,6.0,-999.0,88,-99.99,,,-99.99,,2013-02-11 14:32:00,
2013-02-11 08:42:00,15.0,12.0,30.12,NW,323,4.0,-999.0,88,-99.99,,,-99.99,,2013-02-11 14:42:00,
2013-02-11 08:53:00,15.0,12.0,30.12,NW,323,4.0,-999.0,88,-99.99,,,-99.99,,2013-02-11 14:53:00,
2013-02-11 09:02:00,15.0,12.0,30.12,NW,309,4.0,-999.0,89,-99.99,,,-99.99,,2013-02-11 15:02:00,
2013-02-11 09:11:00,15.0,12.0,30.12,NW,309,4.0,-999.0,89,-99.99,,,-99.99,,2013-02-11 15:11:00,
2013-02-11 09:22:00,15.0,12.0,30.11,WNW,303,7.0,-999.0,89,-99.99,,,-99.99,,2013-02-11 15:22:00,
2013-02-11 09:32:00,15.0,12.0,30.11,WNW,303,11.0,-999.0,89,-99.99,,,-99.99,,2013-02-11 15:32:00,
2013-02-11 09:42:00,15.0,12.0,30.11,WNW,303,12.0,-999.0,88,-99.99,,,-99.99,,2013-02-11 15:42:00,
2013-02-11 09:52:00,15.0,12.0,30.11,WNW,303,12.0,-999.0,88,-99.99,,,-99.99,,2013-02-11 15:52:00,
2013-02-11 10:02:00,15.0,12.0,30.11,NW,324,7.0,-999.0,88,-99.99,,,-99.99,,2013-02-11 16:02:00,
2013-02-11 10:11:00,15.0,12.0,30.11,NW,324,7.0,-999.0,88,-99.99,,,-99.99,,2013-02-11 16:11:00,
2013-02-11 10:22:00,15.0,12.0,30.11,NW,324,7.0,-999.0,88,-99.99,,,-99.99,,2013-02-11 16:22:00,
2013-02-11 10:32:00,15.0,12.0,30.10,NW,315,8.0,-999.0,88,-99.99,,,-99.99,,2013-02-11 16:32:00,
2013-02-11 10:42:00,16.0,13.0,30.11,NNW,330,7.0,-999.0,88,-99.99,,,-99.99,,2013-02-11 16:42:00,
2013-02-11 10:52:00,16.0,13.0,30.11,NNW,330,7.0,-999.0,88,-99.99,,,-99.99,,2013-02-11 16:52:00,
2013-02-11 11:01:00,16.0,13.0,30.11,NNW,330,7.0,-999.0,88,-99.99,,,-99.99,,2013-02-11 17:01:00,
2013-02-11 11:11:00,16.0,13.0,30.11,NNW,330,7.0,-999.0,88,-99.99,,,-99.99,,2013-02-11 17:11:00,
2013-02-11 11:22:00,16.0,13.0,30.10,NW,326,3.0,-999.0,88,-99.99,,,-99.99,,2013-02-11 17:22:00,
2013-02-11 11:32:00,16.0,13.0,30.10,NW,320,3.0,-999.0,87,-99.99,,,-99.99,,2013-02-11 17:32:00,
2013-02-11 11:42:00,16.0,13.0,30.10,NW,320,3.0,-999.0,87,-99.99,,,-99.99,,2013-02-11 17:42:00,
2013-02-11 11:53:00,16.0,13.0,30.09,NW,319,3.0,-999.0,87,-99.99,,,-99.99,,2013-02-11 17:53:00,
2013-02-11 12:01:00,16.0,13.0,30.09,WNW,290,6.0,-999.0,88,-99.99,,,-99.99,,2013-02-11 18:01:00,
2013-02-11 12:11:00,16.0,13.0,30.09,WNW,290,6.0,-999.0,88,-99.99,,,-99.99,,2013-02-11 18:11:00,
2013-02-11 12:21:00,16.0,13.0,30.09,WNW,283,7.0,-999.0,86,-99.99,,,-99.99,,2013-02-11 18:21:00,
2013-02-11 12:32:00,16.0,12.0,30.09,West,277,8.0,-999.0,84,-99.99,,,-99.99,,2013-02-11 18:32:00,
2013-02-11 12:42:00,16.0,12.0,30.08,West,281,7.0,-999.0,83,-99.99,,,-99.99,,2013-02-11 18:42:00,
2013-02-11 12:53:00,16.0,12.0,30.08,West,281,7.0,-999.0,83,-99.99,,,-99.99,,2013-02-11 18:53:00,
2013-02-11 13:02:00,17.0,13.0,30.07,West,269,8.0,-999.0,83,-99.99,,,-99.99,,2013-02-11 19:02:00,
2013-02-11 13:11:00,17.0,13.0,30.06,West,269,9.0,-999.0,83,-99.99,,,-99.99,,2013-02-11 19:11:00,
2013-02-11 13:21:00,17.0,13.0,30.06,West,269,9.0,-999.0,83,-99.99,,,-99.99,,2013-02-11 19:21:00,
2013-02-11 13:32:00,18.0,14.0,30.06,West,267,8.0,-999.0,84,-99.99,,,-99.99,,2013-02-11 19:32:00,
2013-02-11 13:41:00,18.0,14.0,30.06,West,267,8.0,-999.0,84,-99.99,,,-99.99,,2013-02-11 19:41:00,
2013-02-11 13:51:00,18.0,14.0,30.05,WSW,256,8.0,-999.0,84,-99.99,,,-99.99,,2013-02-11 19:51:00,
2013-02-11 14:01:00,19.0,15.0,30.04,West,267,8.0,-999.0,84,-99.99,,,-99.99,,2013-02-11 20:01:00,
2013-02-11 14:11:00,19.0,15.0,30.03,West,267,10.0,-999.0,85,-99.99,,,-99.99,,2013-02-11 20:11:00,
2013-02-11 14:21:00,19.0,15.0,30.03,West,267,10.0,-999.0,85,-99.99,,,-99.99,,2013-02-11 20:21:00,
2013-02-11 14:32:00,20.0,16.0,30.02,West,263,10.0,-999.0,85,-99.99,,,-99.99,,2013-02-11 20:32:00,
2013-02-11 14:42:00,20.0,16.0,30.01,WSW,252,8.0,-999.0,85,-99.99,,,-99.99,,2013-02-11 20:42:00,
2013-02-11 14:52:00,20.0,16.0,30.01,WSW,252,8.0,-999.0,85,-99.99,,,-99.99,,2013-02-11 20:52:00,
2013-02-11 15:02:00,21.0,17.0,30.01,WSW,237,8.0,-999.0,83,-99.99,,,-99.99,,2013-02-11 21:02:00,
2013-02-11 15:11:00,21.0,17.0,29.99,WSW,254,10.0,-999.0,84,-99.99,,,-99.99,,2013-02-11 21:11:00,
2013-02-11 15:21:00,21.0,17.0,29.99,WSW,254,10.0,-999.0,84,-99.99,,,-99.99,,2013-02-11 21:21:00,
2013-02-11 15:32:00,21.0,17.0,30.00,West,260,11.0,-999.0,84,-99.99,,,-99.99,,2013-02-11 21:32:00,
2013-02-11 15:42:00,21.0,17.0,30.00,West,260,11.0,-999.0,84,-99.99,,,-99.99,,2013-02-11 21:42:00,
2013-02-11 15:52:00,21.0,16.0,30.00,West,265,7.0,-999.0,81,-99.99,,,-99.99,,2013-02-11 21:52:00,
2013-02-11 16:01:00,22.0,17.0,30.00,West,259,4.0,-999.0,81,-99.99,,,-99.99,,2013-02-11 22:01:00,
2013-02-11 16:11:00,22.0,17.0,29.99,West,271,4.0,-999.0,80,-99.99,,,-99.99,,2013-02-11 22:11:00,
2013-02-11 16:22:00,22.0,17.0,29.99,West,271,4.0,-999.0,80,-99.99,,,-99.99,,2013-02-11 22:22:00,
2013-02-11 16:32:00,22.0,17.0,29.98,SSW,210,4.0,-999.0,80,-99.99,,,-99.99,,2013-02-11 22:32:00,
2013-02-11 16:42:00,22.0,17.0,29.98,SSW,210,4.0,-999.0,80,-99.99,,,-99.99,,2013-02-11 22:42:00,
2013-02-11 16:52:00,22.0,17.0,29.98,SW,216,3.0,-999.0,80,-99.99,,,-99.99,,2013-02-11 22:52:00,
2013-02-11 17:01:00,21.0,16.0,29.97,SSW,213,5.0,-999.0,81,-99.99,,,-99.99,,2013-02-11 23:01:00,
2013-02-11 17:11:00,21.0,16.0,29.97,SSW,213,5.0,-999.0,81,-99.99,,,-99.99,,2013-02-11 23:11:00,
2013-02-11 17:21:00,21.0,16.0,29.97,SW,218,2.0,-999.0,81,-99.99,,,-99.99,,2013-02-11 23:21:00,
2013-02-11 17:32:00,20.0,15.0,29.96,SW,221,2.0,-999.0,82,-99.99,,,-99.99,,2013-02-11 23:32:00,
2013-02-11 17:42:00,20.0,15.0,29.96,SW,221,2.0,-999.0,82,-99.99,,,-99.99,,2013-02-11 23:42:00,
2013-02-11 17:52:00,19.0,15.0,29.96,SW,221,2.0,-999.0,83,-99.99,,,-99.99,,2013-02-11 23:52:00,
2013-02-11 18:01:00,18.0,14.0,29.95,SW,220,4.0,-999.0,84,-99.99,,,-99.99,,2013-02-12 00:01:00,
2013-02-11 18:11:00,18.0,14.0,29.95,SW,220,4.0,-999.0,84,-99.99,,,-99.99,,2013-02-12 00:11:00,
2013-02-11 18:22:00,17.0,13.0,29.95,SW,220,4.0,-999.0,84,-99.99,,,-99.99,,2013-02-12 00:22:00,
2013-02-11 18:32:00,15.0,11.0,29.94,SW,219,4.0,-999.0,85,-99.99,,,-99.99,,2013-02-12 00:32:00,
2013-02-11 18:42:00,15.0,11.0,29.94,SW,219,4.0,-999.0,85,-99.99,,,-99.99,,2013-02-12 00:42:00,
2013-02-11 18:52:00,15.0,12.0,29.93,SW,217,4.0,-999.0,86,-99.99,,,-99.99,,2013-02-12 00:52:00,
2013-02-11 19:02:00,13.0,10.0,29.93,SSW,210,4.0,-999.0,86,-99.99,,,-99.99,,2013-02-12 01:02:00,
2013-02-11 19:11:00,13.0,10.0,29.93,SSW,210,4.0,-999.0,86,-99.99,,,-99.99,,2013-02-12 01:11:00,
2013-02-11 19:21:00,13.0,10.0,29.93,SSW,201,7.0,-999.0,87,-99.99,,,-99.99,,2013-02-12 01:21:00,
2013-02-11 19:32:00,14.0,11.0,29.92,SSW,195,7.0,-999.0,88,-99.99,,,-99.99,,2013-02-12 01:32:00,
2013-02-11 19:42:00,14.0,11.0,29.92,SSW,195,7.0,-999.0,88,-99.99,,,-99.99,,2013-02-12 01:42:00,
2013-02-11 19:52:00,12.0,9.0,29.92,SSW,205,5.0,-999.0,87,-99.99,,,-99.99,,2013-02-12 01:52:00,
2013-02-11 20:01:00,14.0,11.0,29.91,SSW,206,6.0,-999.0,88,-99.99,,,-99.99,,2013-02-12 02:01:00,
2013-02-11 20:11:00,14.0,11.0,29.90,SSW,209,6.0,-999.0,87,-99.99,,,-99.99,,2013-02-12 02:11:00,
2013-02-11 20:21:00,14.0,11.0,29.90,SSW,209,6.0,-999.0,87,-99.99,,,-99.99,,2013-02-12 02:21:00,
2013-02-11 20:31:00,17.0,14.0,29.90,SSW,211,6.0,-999.0,87,-99.99,,,-99.99,,2013-02-12 02:31:00,
2013-02-11 20:41:00,17.0,14.0,29.90,SSW,211,6.0,-999.0,87,-99.99,,,-99.99,,2013-02-12 02:41:00,
2013-02-11 20:52:00,17.0,13.0,29.89,SSW,211,5.0,-999.0,85,-99.99,,,-99.99,,2013-02-12 02:52:00,
2013-02-11 21:02:00,17.0,13.0,29.88,SSW,213,7.0,-999.0,85,-99.99,,,-99.99,,2013-02-12 03:02:00,
2013-02-11 21:11:00,16.0,12.0,29.88,SSW,212,4.0,-999.0,85,-99.99,,,-99.99,,2013-02-12 03:11:00,
2013-02-11 21:21:00,16.0,12.0,29.88,SSW,212,4.0,-999.0,85,-99.99,,,-99.99,,2013-02-12 03:21:00,
2013-02-11 21:31:00,16.0,12.0,29.87,SSW,212,3.0,-999.0,85,-99.99,,,-99.99,,2013-02-12 03:31:00,
2013-02-11 21:41:00,16.0,12.0,29.87,SSW,211,4.0,-999.0,85,-99.99,,,-99.99,,2013-02-12 03:41:00,
2013-02-11 21:52:00,16.0,12.0,29.87,SSW,211,4.0,-999.0,85,-99.99,,,-99.99,,2013-02-12 03:52:00,
2013-02-11 22:01:00,15.0,11.0,29.87,SSW,211,3.0,-999.0,85,-99.99,,,-99.99,,2013-02-12 04:01:00,
2013-02-11 22:11:00,15.0,11.0,29.87,SSW,211,3.0,-999.0,85,-99.99,,,-99.99,,2013-02-12 04:11:00,
2013-02-11 22:21:00,16.0,13.0,29.86,SSW,211,1.0,-999.0,86,-99.99,,,-99.99,,2013-02-12 04:21:00,
2013-02-11 22:31:00,18.0,15.0,29.85,SW,215,2.0,-999.0,86,-99.99,,,-99.99,,2013-02-12 04:31:00,
2013-02-11 22:41:00,18.0,15.0,29.85,SW,215,2.0,-999.0,86,-99.99,,,-99.99,,2013-02-12 04:41:00,
2013-02-11 22:52:00,17.0,13.0,29.85,SW,216,1.0,-999.0,84,-99.99,,,-99.99,,2013-02-12 04:52:00,
2013-02-11 23:01:00,16.0,12.0,29.85,SW,215,1.0,-999.0,84,-99.99,,,-99.99,,2013-02-12 05:01:00,
2013-02-11 23:11:00,16.0,12.0,29.85,SW,215,1.0,-999.0,84,-99.99,,,-99.99,,2013-02-12 05:11:00,
2013-02-11 23:21:00,16.0,12.0,29.85,SW,215,1.0,-999.0,84,-99.99,,,-99.99,,2013-02-12 05:21:00,
2013-02-11 23:31:00,19.0,15.0,29.84,West,264,11.0,-999.0,84,-99.99,,,-99.99,,2013-02-12 05:31:00,
2013-02-11 23:42:00,19.0,15.0,29.84,West,264,11.0,-999.0,84,-99.99,,,-99.99,,2013-02-12 05:42:00,
2013-02-11 23:52:00,20.0,16.0,29.83,West,269,12.0,-999.0,83,-99.99,,,-99.99,,2013-02-12 05:52:00,